createdAt,value
2018-08-10T00:00:20.524Z,78.70
2018-08-10T00:02:49.096Z,79.00
2018-08-10T00:05:17.667Z,76.20
2018-08-10T00:07:46.231Z,75.40
2018-08-10T00:10:15.072Z,73.20
2018-08-10T00:12:43.703Z,72.30
2018-08-10T00:15:13.092Z,71.40
2018-08-10T00:17:42.027Z,71.50
2018-08-10T00:20:12.927Z,71.00
2018-08-10T00:22:41.777Z,71.10
2018-08-10T00:25:12.297Z,71.20
2018-08-10T00:27:41.411Z,71.10
2018-08-10T00:30:12.786Z,71.30
2018-08-10T00:32:42.568Z,71.60
2018-08-10T00:35:11.259Z,70.90
2018-08-10T00:37:40.599Z,70.70
2018-08-10T00:40:13.484Z,71.00
2018-08-10T00:42:42.568Z,71.50
2018-08-10T00:45:12.440Z,72.00
2018-08-10T00:47:41.313Z,72.50
2018-08-10T00:50:11.365Z,72.70
2018-08-10T00:52:40.071Z,73.20
2018-08-10T00:55:10.907Z,72.50
2018-08-10T00:57:40.478Z,72.10
2018-08-10T01:00:11.446Z,72.00
2018-08-10T01:02:40.310Z,70.40
2018-08-10T01:05:09.820Z,68.20
2018-08-10T01:07:38.628Z,67.50
2018-08-10T01:10:10.563Z,66.60
2018-08-10T01:12:39.827Z,65.70
2018-08-10T01:15:10.406Z,65.70
2018-08-10T01:17:39.526Z,65.00
2018-08-10T01:20:12.107Z,64.10
2018-08-10T01:22:44.619Z,63.60
2018-08-10T01:25:13.654Z,63.60
2018-08-10T01:27:47.295Z,63.90
2018-08-10T01:30:15.837Z,63.70
2018-08-10T01:32:44.400Z,63.30
2018-08-10T01:35:13.028Z,63.10
2018-08-10T01:37:41.595Z,63.60
2018-08-10T01:40:10.150Z,63.70
2018-08-10T01:42:38.746Z,64.60
2018-08-10T01:45:08.567Z,64.80
2018-08-10T01:47:37.088Z,65.20
2018-08-10T01:50:06.441Z,65.80
2018-08-10T01:52:34.997Z,65.60
2018-08-10T01:55:04.394Z,65.60
2018-08-10T01:57:33.009Z,66.00
2018-08-10T02:00:01.794Z,66.10
2018-08-10T02:02:30.427Z,66.10
2018-08-10T02:04:59.109Z,66.50
2018-08-10T02:07:27.655Z,66.90
2018-08-10T02:09:56.219Z,66.70
2018-08-10T02:12:24.798Z,66.50
2018-08-10T02:14:53.353Z,66.80
2018-08-10T02:17:21.915Z,67.40
2018-08-10T02:19:50.487Z,67.50
2018-08-10T02:22:19.032Z,68.40
2018-08-10T02:24:47.605Z,68.40
2018-08-10T02:27:16.162Z,68.80
2018-08-10T02:29:44.826Z,69.10
2018-08-10T02:32:13.388Z,68.80
2018-08-10T02:34:41.966Z,68.40
2018-08-10T02:37:10.507Z,68.80
2018-08-10T02:39:39.303Z,68.40
2018-08-10T02:42:07.899Z,68.70
2018-08-10T02:44:36.490Z,69.40
2018-08-10T02:47:05.055Z,69.20
2018-08-10T02:49:33.614Z,69.20
2018-08-10T02:52:02.198Z,69.10
2018-08-10T02:54:30.766Z,69.40
2018-08-10T02:56:59.387Z,69.30
2018-08-10T02:59:27.940Z,69.80
2018-08-10T03:01:56.509Z,70.20
2018-08-10T03:04:25.095Z,69.70
2018-08-10T03:06:53.652Z,69.70
2018-08-10T03:09:22.175Z,69.20
2018-08-10T03:11:51.047Z,67.90
2018-08-10T03:14:19.595Z,67.90
2018-08-10T03:16:48.154Z,67.60
2018-08-10T03:19:16.767Z,67.20
2018-08-10T03:21:45.320Z,67.80
2018-08-10T03:24:13.882Z,66.60
2018-08-10T03:26:42.498Z,66.80
2018-08-10T03:29:11.329Z,66.70
2018-08-10T03:31:39.894Z,66.70
2018-08-10T03:34:08.449Z,66.50
2018-08-10T03:36:37.058Z,67.10
2018-08-10T03:39:08.224Z,67.20
2018-08-10T03:41:36.843Z,67.40
2018-08-10T03:44:05.704Z,67.60
2018-08-10T03:46:34.349Z,68.20
2018-08-10T03:49:02.999Z,68.50
2018-08-10T03:51:31.568Z,68.70
2018-08-10T03:54:00.195Z,69.60
2018-08-10T03:56:28.850Z,69.30
2018-08-10T03:58:57.378Z,68.90
2018-08-10T04:01:26.032Z,68.10
2018-08-10T04:03:54.618Z,66.50
2018-08-10T04:06:23.156Z,66.30
2018-08-10T04:08:51.749Z,66.30
2018-08-10T04:11:20.383Z,66.50
2018-08-10T04:13:48.946Z,67.00
2018-08-10T04:16:17.577Z,67.60
2018-08-10T04:18:46.134Z,67.90
2018-08-10T04:21:14.732Z,66.70
2018-08-10T04:23:43.279Z,66.60
2018-08-10T04:26:11.879Z,66.40
2018-08-10T04:28:40.422Z,67.10
2018-08-10T04:31:09.039Z,67.80
2018-08-10T04:33:37.614Z,67.50
2018-08-10T04:36:06.187Z,67.80
2018-08-10T04:38:34.850Z,67.90
2018-08-10T04:41:03.330Z,67.80
2018-08-10T04:43:31.905Z,68.10
2018-08-10T04:46:00.500Z,69.00
2018-08-10T04:48:29.050Z,68.70
2018-08-10T04:50:57.637Z,68.10
2018-08-10T04:53:26.211Z,68.00
2018-08-10T04:55:54.778Z,67.50
2018-08-10T04:58:23.350Z,67.50
2018-08-10T05:00:51.925Z,68.00
2018-08-10T05:03:20.510Z,68.00
2018-08-10T05:05:49.036Z,68.00
2018-08-10T05:08:17.592Z,68.10
2018-08-10T05:10:46.175Z,69.10
2018-08-10T05:13:14.744Z,67.90
2018-08-10T05:15:43.367Z,68.40
2018-08-10T05:18:12.034Z,68.10
2018-08-10T05:20:40.606Z,68.40
2018-08-10T05:23:09.236Z,68.40
2018-08-10T05:25:37.777Z,67.80
2018-08-10T05:28:06.590Z,67.90
2018-08-10T05:30:35.216Z,66.80
2018-08-10T05:33:03.854Z,66.70
2018-08-10T05:35:32.423Z,67.10
2018-08-10T05:38:00.994Z,67.10
2018-08-10T05:40:29.570Z,66.90
2018-08-10T05:42:58.167Z,66.10
2018-08-10T05:45:26.777Z,65.70
2018-08-10T05:47:55.400Z,64.40
2018-08-10T05:50:23.939Z,60.10
2018-08-10T05:52:52.503Z,57.20
2018-08-10T05:55:21.059Z,55.60
2018-08-10T05:57:49.627Z,55.60
2018-08-10T06:00:18.209Z,56.70
2018-08-10T06:02:46.768Z,57.80
2018-08-10T06:05:15.379Z,58.30
2018-08-10T06:07:43.952Z,56.00
2018-08-10T06:10:12.520Z,51.90
2018-08-10T06:12:41.051Z,49.90
2018-08-10T06:15:10.774Z,48.10
2018-08-10T06:17:39.635Z,48.30
2018-08-10T06:20:11.810Z,49.00
2018-08-10T06:22:40.362Z,49.90
2018-08-10T06:25:09.218Z,47.40
2018-08-10T06:27:37.897Z,45.60
2018-08-10T06:30:09.395Z,46.80
2018-08-10T06:32:37.995Z,48.60
2018-08-10T06:35:06.582Z,50.80
2018-08-10T06:37:35.378Z,52.30
2018-08-10T06:40:04.552Z,53.40
2018-08-10T06:42:33.089Z,49.90
2018-08-10T06:45:01.777Z,48.20
2018-08-10T06:47:30.204Z,48.00
2018-08-10T06:49:58.783Z,48.70
2018-08-10T06:52:27.360Z,51.40
2018-08-10T06:54:55.959Z,53.40
2018-08-10T06:57:24.555Z,53.30
2018-08-10T06:59:53.110Z,49.60
2018-08-10T07:02:21.711Z,44.40
2018-08-10T07:04:50.300Z,42.00
2018-08-10T07:07:18.913Z,42.90
2018-08-10T07:09:47.532Z,44.70
2018-08-10T07:12:16.139Z,46.70
2018-08-10T07:14:44.682Z,46.40
2018-08-10T07:17:13.364Z,44.50
2018-08-10T07:19:42.607Z,42.80
2018-08-10T07:22:11.191Z,37.50
2018-08-10T07:24:39.780Z,32.20
2018-08-10T07:27:08.359Z,29.70
2018-08-10T07:29:36.881Z,28.80
2018-08-10T07:32:05.533Z,28.90
2018-08-10T07:34:34.128Z,27.10
2018-08-10T07:37:02.719Z,26.90
2018-08-10T07:39:31.285Z,26.60
2018-08-10T07:41:59.870Z,25.40
2018-08-10T07:44:28.492Z,24.90
2018-08-10T07:46:57.111Z,23.90
2018-08-10T07:49:25.691Z,23.60
2018-08-10T07:51:54.238Z,23.10
2018-08-10T07:54:22.839Z,23.00
2018-08-10T07:56:51.439Z,21.70
2018-08-10T07:59:20.012Z,21.70
2018-08-10T08:01:48.622Z,21.70
2018-08-10T08:04:17.210Z,21.00
2018-08-10T08:06:45.802Z,19.80
2018-08-10T08:09:14.444Z,20.00
2018-08-10T08:11:43.379Z,21.00
2018-08-10T08:14:11.970Z,19.40
2018-08-10T08:16:40.623Z,18.60
2018-08-10T08:19:09.265Z,19.30
2018-08-10T08:21:37.876Z,18.90
2018-08-10T08:24:06.519Z,18.40
2018-08-10T08:26:35.144Z,18.00
2018-08-10T08:29:03.816Z,17.50
2018-08-10T08:31:32.555Z,17.80
2018-08-10T08:34:07.740Z,18.10
2018-08-10T08:36:36.633Z,17.20
2018-08-10T08:40:34.154Z,17.00
2018-08-10T08:43:02.814Z,16.20
2018-08-10T08:46:24.262Z,16.50
2018-08-10T08:48:53.138Z,17.50
2018-08-10T08:51:26.695Z,18.00
2018-08-10T08:54:06.355Z,18.40
2018-08-10T08:56:49.796Z,17.20
2018-08-10T08:59:18.385Z,16.40
2018-08-10T09:01:46.974Z,15.60
2018-08-10T09:04:38.316Z,15.30
2018-08-10T09:07:06.957Z,15.50
2018-08-10T09:09:39.197Z,15.00
2018-08-10T09:12:07.817Z,15.40
2018-08-10T09:14:43.438Z,16.80
2018-08-10T09:17:12.164Z,16.30
2018-08-10T09:19:41.698Z,17.20
2018-08-10T09:22:12.967Z,18.00
2018-08-10T09:24:42.137Z,19.40
2018-08-10T09:27:10.744Z,21.00
2018-08-10T09:29:39.569Z,19.50
2018-08-10T09:32:08.183Z,18.50
2018-08-10T09:34:36.755Z,17.10
2018-08-10T09:37:06.042Z,15.60
2018-08-10T09:39:34.675Z,15.80
2018-08-10T09:42:03.900Z,15.60
2018-08-10T09:44:33.063Z,16.20
2018-08-10T09:47:02.296Z,18.80
2018-08-10T09:49:33.028Z,22.50
2018-08-10T09:52:01.720Z,25.10
2018-08-10T09:54:30.343Z,22.40
2018-08-10T09:57:03.048Z,19.30
2018-08-10T09:59:31.958Z,18.90
2018-08-10T10:02:05.920Z,19.60
2018-08-10T10:04:34.514Z,17.90
2018-08-10T10:07:03.109Z,19.30
2018-08-10T10:09:32.015Z,19.30
2018-08-10T10:12:00.699Z,19.10
2018-08-10T10:14:29.331Z,19.20
2018-08-10T10:16:57.960Z,20.40
2018-08-10T10:19:26.542Z,20.50
2018-08-10T10:21:55.145Z,20.00
2018-08-10T10:24:23.737Z,19.90
2018-08-10T10:26:52.278Z,20.60
2018-08-10T10:29:20.824Z,22.60
2018-08-10T10:31:49.503Z,23.90
2018-08-10T10:34:18.058Z,23.50
2018-08-10T10:36:46.599Z,26.70
2018-08-10T10:39:15.258Z,26.50
2018-08-10T10:41:43.791Z,27.20
2018-08-10T10:44:12.332Z,29.70
2018-08-10T10:46:40.923Z,28.30
2018-08-10T10:49:09.479Z,27.30
2018-08-10T10:51:38.020Z,27.20
2018-08-10T10:54:06.574Z,28.10
2018-08-10T10:56:35.220Z,28.70
2018-08-10T10:59:03.895Z,28.10
2018-08-10T11:01:32.517Z,27.80
2018-08-10T11:04:01.087Z,30.70
2018-08-10T11:06:29.744Z,29.70
2018-08-10T11:08:58.352Z,27.80
2018-08-10T11:11:26.899Z,28.50
2018-08-10T11:13:55.470Z,30.00
2018-08-10T11:16:24.096Z,30.10
2018-08-10T11:18:52.633Z,28.90
2018-08-10T11:21:21.201Z,27.70
2018-08-10T11:23:49.760Z,26.90
2018-08-10T11:26:18.319Z,28.20
2018-08-10T11:28:46.858Z,27.80
2018-08-10T11:31:15.469Z,27.80
2018-08-10T11:33:43.998Z,28.90
2018-08-10T11:36:12.538Z,28.70
2018-08-10T11:38:41.106Z,28.90
2018-08-10T11:41:09.738Z,28.60
2018-08-10T11:43:38.306Z,28.00
2018-08-10T11:46:07.157Z,28.00
2018-08-10T11:48:35.726Z,27.50
2018-08-10T11:51:04.372Z,28.20
2018-08-10T11:53:32.972Z,28.60
2018-08-10T11:56:01.564Z,28.30
2018-08-10T11:58:30.092Z,28.80
2018-08-10T12:02:01.720Z,29.00
2018-08-10T12:04:30.223Z,30.00
2018-08-10T12:06:58.791Z,29.50
2018-08-10T12:09:27.364Z,29.80
2018-08-10T12:11:55.909Z,31.10
2018-08-10T12:14:24.457Z,31.30
2018-08-10T12:16:53.071Z,31.00
2018-08-10T12:19:21.602Z,30.90
2018-08-10T12:21:50.169Z,31.00
2018-08-10T12:24:25.474Z,30.70
2018-08-10T12:26:54.197Z,31.70
2018-08-10T12:29:22.782Z,31.40
2018-08-10T12:31:51.392Z,32.50
2018-08-10T12:34:20.005Z,32.10
2018-08-10T12:36:48.544Z,31.60
2018-08-10T12:39:17.170Z,31.60
2018-08-10T12:41:45.739Z,31.60
2018-08-10T12:44:14.314Z,30.60
2018-08-10T12:46:42.939Z,30.50
2018-08-10T12:49:11.534Z,29.90
2018-08-10T12:51:40.144Z,29.70
2018-08-10T12:54:08.739Z,29.30
2018-08-10T12:56:37.356Z,27.90
2018-08-10T12:59:05.925Z,28.50
2018-08-10T13:01:34.544Z,29.20
2018-08-10T13:04:03.152Z,29.60
2018-08-10T13:06:31.767Z,29.10
2018-08-10T13:09:00.335Z,28.70
2018-08-10T13:11:28.906Z,30.20
2018-08-10T13:13:57.476Z,29.20
2018-08-10T13:16:26.024Z,29.50
2018-08-10T13:18:54.574Z,29.50
2018-08-10T13:21:23.099Z,29.50
2018-08-10T13:23:51.710Z,29.00
2018-08-10T13:26:20.311Z,29.00
2018-08-10T13:28:48.847Z,28.30
2018-08-10T13:31:17.451Z,27.90
2018-08-10T13:33:46.051Z,27.10
2018-08-10T13:36:14.651Z,27.30
2018-08-10T13:38:43.287Z,29.00
2018-08-10T13:41:11.910Z,29.70
2018-08-10T13:43:46.959Z,28.50
2018-08-10T13:46:15.702Z,27.50
2018-08-10T13:48:44.318Z,27.90
2018-08-10T13:51:12.911Z,28.80
2018-08-10T13:53:41.462Z,29.20
2018-08-10T13:56:09.989Z,27.10
2018-08-10T13:58:38.698Z,26.60
2018-08-10T14:01:07.297Z,26.40
2018-08-10T14:03:36.538Z,27.10
2018-08-10T14:06:05.231Z,26.80
2018-08-10T14:08:33.778Z,26.70
2018-08-10T14:11:02.413Z,26.00
2018-08-10T14:13:30.999Z,28.00
2018-08-10T14:15:59.630Z,28.20
2018-08-10T14:18:28.198Z,29.00
2018-08-10T14:20:56.780Z,28.20
2018-08-10T14:23:25.343Z,27.80
2018-08-10T14:25:53.941Z,28.50
2018-08-10T14:28:22.565Z,28.20
2018-08-10T14:30:51.130Z,27.60
2018-08-10T14:33:19.771Z,28.30
2018-08-10T14:35:48.447Z,29.20
2018-08-10T14:38:17.007Z,28.70
2018-08-10T14:40:45.565Z,28.90
2018-08-10T14:43:14.182Z,28.90
2018-08-10T14:45:42.782Z,29.00
2018-08-10T14:48:11.351Z,29.10
2018-08-10T14:50:39.975Z,29.00
2018-08-10T14:53:08.555Z,29.30
2018-08-10T14:55:37.149Z,29.70
2018-08-10T14:58:05.886Z,29.90
2018-08-10T15:00:34.537Z,29.20
2018-08-10T15:03:03.159Z,28.90
2018-08-10T15:05:31.732Z,29.20
2018-08-10T15:08:00.276Z,28.70
2018-08-10T15:10:29.191Z,29.50
2018-08-10T15:12:57.956Z,29.40
2018-08-10T15:15:26.385Z,29.80
2018-08-10T15:17:54.995Z,29.40
2018-08-10T15:20:23.597Z,29.90
2018-08-10T15:22:52.114Z,29.50
2018-08-10T15:25:20.707Z,29.10
2018-08-10T15:27:49.318Z,29.40
2018-08-10T15:30:18.775Z,29.40
2018-08-10T15:32:47.375Z,29.80
2018-08-10T15:35:17.079Z,28.90
2018-08-10T15:37:46.254Z,29.50
2018-08-10T15:40:16.687Z,29.30
2018-08-10T15:42:45.604Z,30.00
2018-08-10T15:45:15.378Z,30.00
2018-08-10T15:47:44.562Z,30.40
2018-08-10T15:50:13.271Z,30.20
2018-08-10T15:52:43.085Z,30.10
2018-08-10T15:55:12.039Z,30.90
2018-08-10T15:57:41.082Z,30.60
2018-08-10T16:00:12.055Z,30.50
2018-08-10T16:02:40.701Z,31.30
2018-08-10T16:05:10.391Z,32.20
2018-08-10T16:07:39.559Z,32.60
2018-08-10T16:10:08.694Z,32.20
2018-08-10T16:12:37.902Z,32.50
2018-08-10T16:15:08.859Z,32.20
2018-08-10T16:17:37.809Z,33.30
2018-08-10T16:20:07.632Z,33.40
2018-08-10T16:22:36.394Z,33.50
2018-08-10T16:25:06.572Z,32.20
2018-08-10T16:27:35.169Z,32.20
2018-08-10T16:30:03.851Z,32.60
2018-08-10T16:32:32.399Z,31.90
2018-08-10T16:35:00.967Z,32.10
2018-08-10T16:37:29.586Z,32.00
2018-08-10T16:39:58.157Z,31.80
2018-08-10T16:42:26.739Z,32.40
2018-08-10T16:44:55.338Z,32.60
2018-08-10T16:47:23.944Z,33.20
2018-08-10T16:49:52.515Z,33.70
2018-08-10T16:52:21.176Z,34.20
2018-08-10T16:54:49.810Z,34.00
2018-08-10T16:57:18.418Z,33.90
2018-08-10T16:59:47.034Z,34.20
2018-08-10T17:02:15.587Z,34.60
2018-08-10T17:04:44.182Z,34.90
2018-08-10T17:07:12.774Z,35.10
2018-08-10T17:09:41.322Z,35.80
2018-08-10T17:12:10.144Z,35.90
2018-08-10T17:14:38.785Z,36.10
2018-08-10T17:17:07.377Z,36.80
2018-08-10T17:19:35.951Z,36.40
2018-08-10T17:22:04.638Z,37.30
2018-08-10T17:24:33.222Z,37.20
2018-08-10T17:27:01.818Z,36.90
2018-08-10T17:29:30.427Z,37.00
2018-08-10T17:31:58.990Z,37.40
2018-08-10T17:34:27.605Z,37.60
2018-08-10T17:36:56.214Z,37.90
2018-08-10T17:39:24.827Z,38.30
2018-08-10T17:41:53.409Z,38.10
2018-08-10T17:44:21.986Z,37.90
2018-08-10T17:46:50.583Z,38.00
2018-08-10T17:49:19.127Z,38.30
2018-08-10T17:51:47.703Z,38.10
2018-08-10T17:54:16.386Z,38.70
2018-08-10T17:56:44.949Z,39.60
2018-08-10T17:59:13.633Z,39.60
2018-08-10T18:01:42.170Z,40.00
2018-08-10T18:04:10.739Z,41.00
2018-08-10T18:06:39.389Z,41.30
2018-08-10T18:09:09.708Z,41.50
2018-08-10T18:11:38.722Z,42.70
2018-08-10T18:14:08.105Z,43.00
2018-08-10T18:16:36.714Z,43.60
2018-08-10T18:19:05.388Z,44.20
2018-08-10T18:21:34.389Z,44.30
2018-08-10T18:24:03.016Z,44.90
2018-08-10T18:26:31.605Z,45.80
2018-08-10T18:29:00.209Z,45.70
2018-08-10T18:31:28.826Z,46.50
2018-08-10T18:33:57.422Z,47.00
2018-08-10T18:36:26.013Z,47.20
2018-08-10T18:38:54.636Z,48.20
2018-08-10T18:41:23.263Z,48.20
2018-08-10T18:43:51.808Z,48.60
2018-08-10T18:46:20.367Z,48.70
2018-08-10T18:48:49.000Z,48.90
2018-08-10T18:51:17.584Z,50.00
2018-08-10T18:53:46.167Z,50.20
2018-08-10T18:56:14.706Z,50.10
2018-08-10T18:58:43.334Z,49.70
2018-08-10T19:01:11.914Z,48.80
2018-08-10T19:03:40.506Z,49.10
2018-08-10T19:06:09.066Z,50.30
2018-08-10T19:08:37.631Z,50.40
2018-08-10T19:11:06.371Z,50.50
2018-08-10T19:13:34.933Z,50.50
2018-08-10T19:16:03.575Z,50.00
2018-08-10T19:18:32.196Z,50.50
2018-08-10T19:21:00.817Z,50.60
2018-08-10T19:23:29.378Z,50.60
2018-08-10T19:25:57.968Z,50.50
2018-08-10T19:28:26.587Z,51.20
2018-08-10T19:30:55.171Z,51.50
2018-08-10T19:33:23.770Z,52.20
2018-08-10T19:35:52.329Z,52.90
2018-08-10T19:38:20.922Z,54.10
2018-08-10T19:40:49.556Z,55.10
2018-08-10T19:43:18.102Z,55.30
2018-08-10T19:45:46.688Z,55.20
2018-08-10T19:48:15.321Z,54.50
2018-08-10T19:50:43.954Z,54.10
2018-08-10T19:53:13.398Z,54.40
2018-08-10T19:55:42.025Z,55.00
2018-08-10T19:58:10.599Z,56.00
2018-08-10T20:00:39.196Z,56.80
2018-08-10T20:03:07.824Z,57.20
2018-08-10T20:05:36.386Z,57.70
2018-08-10T20:08:04.988Z,57.90
2018-08-10T20:10:34.539Z,57.80
2018-08-10T20:13:03.146Z,58.00
2018-08-10T20:15:31.803Z,58.40
2018-08-10T20:18:00.403Z,57.90
2018-08-10T20:20:29.031Z,57.80
2018-08-10T20:22:57.660Z,57.40
2018-08-10T20:25:26.239Z,57.40
2018-08-10T20:27:54.863Z,57.60
2018-08-10T20:30:23.504Z,56.90
2018-08-10T20:32:52.205Z,56.80
2018-08-10T20:35:21.066Z,56.80
2018-08-10T20:37:50.165Z,57.30
2018-08-10T20:40:19.798Z,57.10
2018-08-10T20:42:48.802Z,57.20
2018-08-10T20:45:18.615Z,57.80
2018-08-10T20:47:47.192Z,58.10
2018-08-10T20:50:19.850Z,58.10
2018-08-10T20:52:48.518Z,58.50
2018-08-10T20:55:17.078Z,58.80
2018-08-10T20:57:46.000Z,59.50
2018-08-10T21:00:14.669Z,59.30
2018-08-10T21:02:44.344Z,58.50
2018-08-10T21:05:13.411Z,58.80
2018-08-10T21:07:42.074Z,59.20
2018-08-10T21:10:12.504Z,59.50
2018-08-10T21:12:42.033Z,59.90
2018-08-10T21:15:12.015Z,60.30
2018-08-10T21:17:41.507Z,60.30
2018-08-10T21:20:12.335Z,60.80
2018-08-10T21:22:40.990Z,62.20
2018-08-10T21:25:10.306Z,63.10
2018-08-10T21:27:39.450Z,64.20
2018-08-10T21:30:10.819Z,64.90
2018-08-10T21:32:39.470Z,65.00
2018-08-10T21:35:08.206Z,65.80
2018-08-10T21:37:36.815Z,65.80
2018-08-10T21:40:06.275Z,66.20
2018-08-10T21:42:34.881Z,65.90
2018-08-10T21:45:03.782Z,66.60
2018-08-10T21:47:32.367Z,68.20
2018-08-10T21:50:00.886Z,68.00
2018-08-10T21:52:29.458Z,68.50
2018-08-10T21:54:58.070Z,69.50
2018-08-10T21:57:26.682Z,69.80
2018-08-10T21:59:55.265Z,70.40
2018-08-10T22:02:25.133Z,70.30
2018-08-10T22:04:54.114Z,70.60
2018-08-10T22:07:22.741Z,71.20
2018-08-10T22:09:51.288Z,71.30
2018-08-10T22:12:20.495Z,71.30
2018-08-10T22:14:54.458Z,71.90
2018-08-10T22:19:35.823Z,72.30
2018-08-10T22:22:04.416Z,73.10
2018-08-10T22:24:33.066Z,73.50
2018-08-10T22:27:01.682Z,74.10
2018-08-10T22:29:30.283Z,74.10
2018-08-10T22:31:58.858Z,74.40
2018-08-10T22:34:27.406Z,75.10
2018-08-10T22:36:56.013Z,74.90
2018-08-10T22:39:24.582Z,74.80
2018-08-10T22:41:53.138Z,74.60
2018-08-10T22:44:21.786Z,74.70
2018-08-10T22:46:50.655Z,74.90
2018-08-10T22:49:19.370Z,74.90
2018-08-10T22:51:47.983Z,75.10
2018-08-10T22:54:16.542Z,74.80
2018-08-10T22:56:45.100Z,74.80
2018-08-10T22:59:13.751Z,74.80
2018-08-10T23:01:42.362Z,74.80
2018-08-10T23:04:10.923Z,75.00
2018-08-10T23:06:39.503Z,75.80
2018-08-10T23:09:09.747Z,75.00
2018-08-10T23:11:38.404Z,75.00
2018-08-10T23:14:07.088Z,74.90
2018-08-10T23:16:35.847Z,75.00
2018-08-10T23:19:04.428Z,76.20
2018-08-10T23:21:33.107Z,75.50
2018-08-10T23:24:01.735Z,75.30
2018-08-10T23:26:30.295Z,75.00
2018-08-10T23:28:58.929Z,75.20
2018-08-10T23:31:27.535Z,75.50
2018-08-10T23:33:56.097Z,76.30
2018-08-10T23:36:24.682Z,76.10
2018-08-10T23:38:53.250Z,75.80
2018-08-10T23:41:21.806Z,76.80
2018-08-10T23:43:50.421Z,76.00
2018-08-10T23:46:18.978Z,76.50
2018-08-10T23:48:47.539Z,76.20
2018-08-10T23:51:16.166Z,76.30
2018-08-10T23:53:44.786Z,76.40
2018-08-10T23:56:13.399Z,76.30
2018-08-10T23:58:42.024Z,76.10
